Time;durP1;ratioP1;P1;durP2;ratioP2;P2;SDS_P1;SDS_P2;PMS_P1;PMS_P2;Temp;Humidity;BMP_temperature;BMP_pressure;BME280_temperature;BME280_humidity;BME280_pressure;Samples;Min_cycle;Max_cycle;Signal;HPM_P1;HPM_P2
2023/11/20 00:02:13;;;;;;;18.20;11.40;;;;;;;4.21;87.86;99133.43;129917;1264;97973;-78
2023/11/20 00:05:19;;;;;;;20.30;12.90;;;;;;;4.26;87.84;99132.74;129930;1265;98086;-79
2023/11/20 00:08:25;;;;;;;22.30;13.60;;;;;;;4.31;87.68;99135.31;129924;1268;97968;-77
2023/11/20 00:11:30;;;;;;;21.80;13.60;;;;;;;4.31;87.76;99138.80;129971;1264;98063;-77
2023/11/20 00:14:37;;;;;;;31.20;17.20;;;;;;;4.33;87.72;99137.09;129940;1264;97979;-78
2023/11/20 00:17:42;;;;;;;30.30;18.40;;;;;;;4.33;87.74;99134.82;129959;1267;98025;-76
2023/11/20 00:20:48;;;;;;;29.70;17.90;;;;;;;4.33;87.92;99133.02;129876;1264;97989;-76
2023/11/20 00:23:53;;;;;;;29.40;17.30;;;;;;;4.29;87.99;99136.34;129900;1264;99254;-76
2023/11/20 00:26:59;;;;;;;30.90;17.90;;;;;;;4.27;88.17;99133.96;129892;1268;99176;-77
2023/11/20 00:30:07;;;;;;;28.50;15.80;;;;;;;4.30;88.16;99133.64;129903;1268;98081;-77
2023/11/20 00:33:13;;;;;;;30.90;17.60;;;;;;;4.34;88.20;99129.95;129947;1268;98103;-77
2023/11/20 00:36:19;;;;;;;32.90;18.30;;;;;;;4.41;88.24;99127.90;129689;1264;98086;-76
2023/11/20 00:39:25;;;;;;;33.80;18.70;;;;;;;4.46;88.30;99125.15;129851;1264;98028;-76
2023/11/20 00:42:30;;;;;;;36.80;19.80;;;;;;;4.49;88.14;99125.36;129871;1268;97967;-77
2023/11/20 00:45:36;;;;;;;38.50;20.20;;;;;;;4.51;88.30;99129.61;129915;1268;98891;-77
2023/11/20 00:48:43;;;;;;;35.40;18.50;;;;;;;4.51;88.30;99132.92;129888;1268;97966;-77
2023/11/20 00:51:49;;;;;;;38.70;19.10;;;;;;;4.54;88.32;99129.19;129873;1268;98756;-77
2023/11/20 00:54:55;;;;;;;35.40;17.60;;;;;;;4.58;88.48;99126.67;129870;1268;97994;-77
2023/11/20 00:58:00;;;;;;;34.40;19.20;;;;;;;4.64;88.41;99127.39;129896;1268;99040;-77
2023/11/20 01:01:07;;;;;;;38.80;20.20;;;;;;;4.70;88.43;99126.83;129767;1264;98096;-77
2023/11/20 01:04:12;;;;;;;33.80;17.80;;;;;;;4.73;88.67;99124.61;129776;1269;99173;-76
2023/11/20 01:07:18;;;;;;;35.20;18.10;;;;;;;4.78;88.67;99122.95;129908;1265;98019;-78
2023/11/20 01:10:24;;;;;;;31.10;17.50;;;;;;;4.80;88.63;99126.08;129939;1265;98474;-78
2023/11/20 01:13:30;;;;;;;30.50;15.70;;;;;;;4.82;88.76;99123.38;129886;1268;99179;-78
2023/11/20 01:16:36;;;;;;;27.80;15.30;;;;;;;4.84;88.73;99124.10;129925;1268;99148;-77
2023/11/20 01:19:41;;;;;;;28.90;15.40;;;;;;;4.90;89.22;99124.09;129756;1268;99159;-77
2023/11/20 01:22:47;;;;;;;25.90;13.90;;;;;;;4.96;89.37;99125.92;129927;1265;97975;-77
2023/11/20 01:25:53;;;;;;;25.80;13.50;;;;;;;5.04;89.99;99124.14;129896;1265;99040;-77
2023/11/20 01:28:59;;;;;;;21.40;12.00;;;;;;;5.14;90.27;99122.74;129899;1268;98018;-77
2023/11/20 01:32:05;;;;;;;18.90;10.20;;;;;;;5.21;90.49;99121.84;129938;1268;98450;-77
2023/11/20 01:35:11;;;;;;;20.90;9.80;;;;;;;5.31;91.69;99122.80;129898;1268;97998;-77
2023/11/20 01:38:17;;;;;;;16.40;8.60;;;;;;;5.45;91.74;99120.60;129656;1271;98041;-77
2023/11/20 01:41:22;;;;;;;15.10;8.30;;;;;;;5.62;92.72;99119.30;129870;1265;98003;-78
2023/11/20 01:44:28;;;;;;;15.10;8.50;;;;;;;5.81;92.84;99118.56;129846;1268;98847;-77
2023/11/20 01:47:33;;;;;;;16.40;8.10;;;;;;;5.97;93.12;99125.65;129931;1268;98013;-79
2023/11/20 01:50:39;;;;;;;17.70;8.40;;;;;;;6.11;93.36;99126.72;129855;1263;98025;-78
2023/11/20 01:53:45;;;;;;;15.00;7.30;;;;;;;6.20;93.58;99121.92;129863;1264;97972;-77
2023/11/20 01:56:51;;;;;;;14.00;6.70;;;;;;;6.29;93.79;99119.45;129913;1263;97971;-77
2023/11/20 01:59:57;;;;;;;13.60;7.70;;;;;;;6.39;93.89;99122.86;129916;1269;99247;-77
2023/11/20 02:03:03;;;;;;;15.60;7.90;;;;;;;6.52;94.12;99117.20;129820;1270;98021;-77
2023/11/20 02:06:09;;;;;;;20.90;9.00;;;;;;;6.63;94.37;99118.14;130041;1268;99153;-77
2023/11/20 02:09:16;;;;;;;15.40;8.30;;;;;;;6.75;94.84;99115.93;129819;1263;98628;-77
2023/11/20 02:12:22;;;;;;;14.90;8.10;;;;;;;6.83;94.23;99115.38;130043;1262;98117;-77
2023/11/20 02:15:28;;;;;;;15.20;7.40;;;;;;;6.89;94.50;99116.40;129768;1267;97982;-77
2023/11/20 02:18:35;;;;;;;18.70;7.20;;;;;;;6.94;94.83;99113.05;130048;1280;98030;-77
2023/11/20 02:21:40;;;;;;;18.10;7.30;;;;;;;6.99;95.21;99113.64;129765;1263;98029;-78
2023/11/20 02:24:47;;;;;;;19.30;8.00;;;;;;;7.08;95.17;99112.69;129996;1267;98493;-77
2023/11/20 02:28:04;;;;;;;16.50;8.00;;;;;;;7.18;95.00;99111.70;129988;1267;98488;-77
2023/11/20 02:31:09;;;;;;;20.30;7.70;;;;;;;7.24;95.24;99102.01;130019;1267;98001;-77
2023/11/20 02:34:16;;;;;;;14.60;8.00;;;;;;;7.28;95.59;99105.80;129954;1267;97954;-76
2023/11/20 02:37:21;;;;;;;20.00;8.50;;;;;;;7.31;95.71;99105.76;129845;1268;98856;-77
2023/11/20 02:40:27;;;;;;;18.10;7.70;;;;;;;7.32;96.01;99107.85;129889;1268;98662;-77
2023/11/20 02:43:38;;;;;;;17.40;7.00;;;;;;;7.34;95.95;99107.83;129872;1267;97977;-76
2023/11/20 02:46:44;;;;;;;16.90;8.00;;;;;;;7.39;95.95;99106.97;129920;1266;98604;-77
2023/11/20 02:49:50;;;;;;;15.80;7.60;;;;;;;7.44;96.18;99106.80;129885;1266;99065;-77
2023/11/20 02:52:55;;;;;;;17.10;7.80;;;;;;;7.50;96.06;99107.73;129867;1268;98751;-77
2023/11/20 02:56:02;;;;;;;18.60;8.30;;;;;;;7.54;96.13;99106.65;129869;1268;97972;-77
2023/11/20 02:59:08;;;;;;;14.90;7.10;;;;;;;7.55;96.02;99106.79;129886;1268;98079;-77
2023/11/20 03:02:15;;;;;;;17.30;6.50;;;;;;;7.54;96.25;99106.98;129882;1264;99173;-78
2023/11/20 03:05:20;;;;;;;13.60;6.70;;;;;;;7.56;96.41;99104.64;129903;1268;98086;-77
2023/11/20 03:08:26;;;;;;;15.80;7.40;;;;;;;7.61;96.54;99103.27;129900;1268;98031;-76
2023/11/20 03:11:32;;;;;;;15.70;8.00;;;;;;;7.66;96.55;99102.86;129871;1268;98758;-76
2023/11/20 03:14:37;;;;;;;29.50;15.40;;;;;;;7.71;96.79;99100.59;129918;1265;97977;-76
2023/11/20 03:17:42;;;;;;;27.80;18.10;;;;;;;7.73;96.40;99101.43;129898;1268;98873;-77
2023/11/20 03:20:48;;;;;;;34.50;20.30;;;;;;;7.74;96.70;99097.48;130228;1265;98051;-76
2023/11/20 03:23:54;;;;;;;41.70;28.50;;;;;;;7.73;96.64;99092.23;130064;1266;99304;-77
2023/11/20 03:27:00;;;;;;;41.60;24.10;;;;;;;7.74;96.64;99095.52;129836;1268;99039;-76
2023/11/20 03:30:08;;;;;;;34.90;20.70;;;;;;;7.77;96.82;99093.56;129854;1265;98612;-76
2023/11/20 03:33:14;;;;;;;22.20;12.20;;;;;;;7.82;96.78;99095.04;129846;1265;98486;-77
2023/11/20 03:36:26;;;;;;;21.90;15.30;;;;;;;7.85;96.85;99093.05;129904;1266;98013;-75
2023/11/20 03:39:31;;;;;;;43.50;20.70;;;;;;;7.89;96.77;99093.29;129879;1268;99213;-75
2023/11/20 03:42:37;;;;;;;67.20;27.50;;;;;;;7.88;96.83;99089.46;129903;1268;98777;-76
2023/11/20 03:45:42;;;;;;;21.90;10.00;;;;;;;7.88;96.77;99091.42;129879;1268;98042;-74
2023/11/20 03:48:48;;;;;;;24.40;11.00;;;;;;;7.88;96.85;99086.85;129874;1268;98761;-74
2023/11/20 03:51:53;;;;;;;17.70;9.10;;;;;;;7.90;96.95;99085.54;129992;1268;98061;-74
2023/11/20 03:54:59;;;;;;;24.60;11.00;;;;;;;7.92;96.93;99088.27;129807;1270;97998;-74
2023/11/20 03:58:05;;;;;;;26.90;14.00;;;;;;;7.94;97.25;99087.91;129726;1270;99185;-74
2023/11/20 04:01:11;;;;;;;50.30;21.50;;;;;;;7.95;97.17;99087.80;129655;1271;99062;-74
2023/11/20 04:04:17;;;;;;;70.90;30.90;;;;;;;7.96;97.28;99091.40;129845;1268;98586;-74
2023/11/20 04:07:23;;;;;;;349.10;148.50;;;;;;;7.99;97.32;99085.26;129861;1268;97979;-74
2023/11/20 04:10:28;;;;;;;56.50;26.70;;;;;;;8.00;97.37;99086.39;129874;1268;99251;-74
2023/11/20 04:13:34;;;;;;;24.80;15.50;;;;;;;7.99;97.55;99082.44;129859;1269;98781;-74
2023/11/20 04:16:39;;;;;;;21.10;11.90;;;;;;;7.98;97.51;99083.90;129652;1268;97967;-74
2023/11/20 04:19:45;;;;;;;17.70;9.70;;;;;;;8.01;97.56;99080.91;129884;1265;98092;-74
2023/11/20 04:22:51;;;;;;;23.20;16.60;;;;;;;8.03;97.66;99077.36;129858;1265;97990;-74
2023/11/20 04:25:57;;;;;;;18.30;11.30;;;;;;;8.07;97.68;99077.64;129824;1268;99211;-74
2023/11/20 04:29:02;;;;;;;18.30;7.70;;;;;;;8.08;97.68;99077.71;129855;1265;98119;-74
2023/11/20 04:32:09;;;;;;;25.60;15.40;;;;;;;8.10;97.79;99082.16;129856;1269;98035;-74
2023/11/20 04:35:15;;;;;;;29.50;12.80;;;;;;;8.11;97.74;99083.08;129865;1268;98803;-74
2023/11/20 04:38:28;;;;;;;24.90;12.90;;;;;;;8.14;97.84;99082.94;129857;1268;98052;-74
2023/11/20 04:41:34;;;;;;;19.40;11.10;;;;;;;8.16;97.87;99083.96;129818;1270;98060;-74
2023/11/20 04:44:39;;;;;;;18.70;10.20;;;;;;;8.16;97.93;99085.75;129835;1266;97959;-74
2023/11/20 04:47:45;;;;;;;19.20;9.70;;;;;;;8.16;97.87;99090.17;129812;1268;98108;-74
2023/11/20 04:50:52;;;;;;;25.70;12.70;;;;;;;8.16;98.02;99089.80;129841;1268;97990;-75
2023/11/20 04:53:57;;;;;;;60.20;33.80;;;;;;;8.17;98.22;99093.69;129873;1265;97999;-74
2023/11/20 04:57:03;;;;;;;34.40;20.90;;;;;;;8.19;98.10;99094.23;129836;1269;98023;-74
2023/11/20 05:00:12;;;;;;;23.30;15.60;;;;;;;8.19;98.02;99091.00;129809;1268;98987;-74
2023/11/20 05:03:18;;;;;;;21.30;14.10;;;;;;;8.20;98.09;99093.73;129903;1268;99688;-74
2023/11/20 05:06:23;;;;;;;25.10;9.10;;;;;;;8.21;98.24;99099.37;129819;1268;99031;-74
2023/11/20 05:09:29;;;;;;;24.20;15.80;;;;;;;8.21;98.31;99100.04;129848;1268;98051;-74
2023/11/20 05:12:34;;;;;;;22.60;12.00;;;;;;;8.21;98.31;99104.27;129831;1268;97961;-74
2023/11/20 05:15:40;;;;;;;19.30;9.30;;;;;;;8.21;98.46;99105.52;129803;1279;97958;-74
2023/11/20 05:18:45;;;;;;;17.10;8.90;;;;;;;8.21;98.36;99107.77;129834;1268;98005;-74
2023/11/20 05:21:51;;;;;;;19.40;10.10;;;;;;;8.24;98.52;99106.98;129764;1268;98777;-75
2023/11/20 05:24:56;;;;;;;19.70;10.70;;;;;;;8.27;98.55;99110.73;129794;1269;98057;-75
2023/11/20 05:28:02;;;;;;;18.50;10.00;;;;;;;8.30;98.68;99107.08;129795;1265;97981;-75
2023/11/20 05:31:07;;;;;;;289.20;113.70;;;;;;;8.30;98.37;99104.43;129763;1268;98057;-75
2023/11/20 05:34:14;;;;;;;234.80;101.90;;;;;;;8.30;98.55;99108.89;129822;1268;98729;-75
2023/11/20 05:37:20;;;;;;;309.70;165.80;;;;;;;8.32;98.59;99105.84;129782;1268;99192;-75
2023/11/20 05:40:26;;;;;;;230.10;111.20;;;;;;;8.34;98.41;99101.66;129790;1268;99189;-74
2023/11/20 05:43:32;;;;;;;366.40;183.60;;;;;;;8.35;98.48;99105.25;129771;1268;99156;-74
2023/11/20 05:46:37;;;;;;;194.40;93.00;;;;;;;8.36;98.47;99105.89;129777;1268;99155;-74
2023/11/20 05:49:43;;;;;;;54.90;33.60;;;;;;;8.36;98.40;99105.72;129774;1270;98035;-74
2023/11/20 05:52:49;;;;;;;23.30;13.50;;;;;;;8.37;98.35;99107.14;129790;1268;99186;-74
2023/11/20 05:55:54;;;;;;;21.10;13.80;;;;;;;8.40;98.51;99110.38;129778;1268;97987;-73
2023/11/20 05:59:00;;;;;;;24.90;14.90;;;;;;;8.42;98.29;99110.33;129780;1269;98613;-74
2023/11/20 06:02:05;;;;;;;28.10;16.90;;;;;;;8.43;98.33;99115.45;129825;1268;98044;-74
2023/11/20 06:05:11;;;;;;;674.20;277.90;;;;;;;8.41;98.39;99117.56;129771;1265;98660;-74
2023/11/20 06:08:17;;;;;;;743.80;310.50;;;;;;;8.39;98.44;99117.07;129750;1278;99160;-74
2023/11/20 06:11:23;;;;;;;565.80;234.50;;;;;;;8.39;98.43;99120.95;129754;1268;98060;-74
2023/11/20 06:14:28;;;;;;;1238.00;558.30;;;;;;;8.41;98.40;99124.50;129809;1268;97963;-74
2023/11/20 06:17:36;;;;;;;1944.20;807.70;;;;;;;8.44;98.52;99121.30;129802;1265;97981;-76
2023/11/20 06:20:43;;;;;;;1033.00;439.50;;;;;;;8.48;98.60;99121.09;129632;1271;98044;-75
2023/11/20 06:23:48;;;;;;;785.80;348.60;;;;;;;8.49;98.49;99128.63;129759;1268;98084;-75
2023/11/20 06:26:54;;;;;;;386.70;144.50;;;;;;;8.49;98.43;99129.35;129724;1267;99058;-76
2023/11/20 06:30:00;;;;;;;551.50;321.60;;;;;;;8.48;98.48;99132.98;129766;1267;98081;-75
2023/11/20 06:33:05;;;;;;;160.90;97.60;;;;;;;8.49;98.40;99135.52;129813;1268;98046;-76
2023/11/20 06:36:12;;;;;;;73.40;40.00;;;;;;;8.51;98.58;99136.91;129776;1266;99009;-76
2023/11/20 06:39:17;;;;;;;50.80;32.10;;;;;;;8.53;98.43;99142.02;129787;1268;97995;-74
2023/11/20 06:42:23;;;;;;;38.00;27.50;;;;;;;8.54;98.39;99142.71;129800;1268;98749;-74
2023/11/20 06:45:30;;;;;;;18.80;12.30;;;;;;;8.54;98.51;99149.29;129777;1268;99150;-74
2023/11/20 06:48:36;;;;;;;32.90;20.50;;;;;;;8.53;98.46;99151.89;129856;1266;98340;-75
2023/11/20 06:51:44;;;;;;;20.70;14.20;;;;;;;8.52;98.51;99152.59;129745;1268;97968;-74
2023/11/20 06:54:50;;;;;;;19.20;11.30;;;;;;;8.56;98.62;99154.25;129836;1264;98083;-74
2023/11/20 06:57:55;;;;;;;23.30;17.00;;;;;;;8.60;98.68;99157.67;129757;1269;99085;-74
2023/11/20 07:01:03;;;;;;;37.00;25.20;;;;;;;8.63;98.52;99156.10;129739;1265;98362;-74
2023/11/20 07:04:08;;;;;;;38.20;27.70;;;;;;;8.64;98.54;99156.66;129805;1268;98145;-74
2023/11/20 07:07:15;;;;;;;37.40;27.90;;;;;;;8.65;98.46;99159.83;129806;1268;98031;-74
2023/11/20 07:10:23;;;;;;;614.00;269.90;;;;;;;8.64;98.62;99163.25;129775;1266;98642;-74
2023/11/20 07:13:29;;;;;;;604.50;301.80;;;;;;;8.67;98.49;99165.85;129800;1267;98749;-74
2023/11/20 07:16:35;;;;;;;386.30;194.30;;;;;;;8.70;98.48;99169.11;129770;1268;97989;-74
2023/11/20 07:19:42;;;;;;;301.80;154.20;;;;;;;8.72;98.74;99171.45;129798;1266;99027;-74
2023/11/20 07:22:47;;;;;;;181.90;98.90;;;;;;;8.74;98.29;99173.73;129871;1272;97990;-74
2023/11/20 07:25:54;;;;;;;74.80;42.20;;;;;;;8.75;98.59;99172.58;129808;1268;98678;-74
2023/11/20 07:28:59;;;;;;;30.60;18.20;;;;;;;8.75;98.55;99174.14;129769;1268;99160;-75
2023/11/20 07:32:06;;;;;;;22.20;12.80;;;;;;;8.74;98.68;99176.11;129815;1268;97997;-74
2023/11/20 07:35:13;;;;;;;19.30;12.00;;;;;;;8.74;98.84;99177.64;129844;1268;98636;-74
2023/11/20 07:38:19;;;;;;;63.50;43.60;;;;;;;8.79;98.88;99179.92;129942;1264;101482;-73
2023/11/20 07:41:24;;;;;;;25.30;16.20;;;;;;;8.84;98.81;99177.96;129716;1266;97987;-74
2023/11/20 07:44:30;;;;;;;35.60;21.10;;;;;;;8.88;98.61;99178.23;129749;1266;99148;-74
2023/11/20 07:47:35;;;;;;;26.40;14.50;;;;;;;8.94;98.72;99178.47;129832;1264;98010;-74
2023/11/20 07:50:41;;;;;;;20.70;11.40;;;;;;;8.98;98.62;99177.11;129793;1265;97967;-74
2023/11/20 07:53:48;;;;;;;22.30;13.10;;;;;;;9.02;98.46;99176.30;129750;1268;99145;-74
2023/11/20 07:56:54;;;;;;;19.90;11.40;;;;;;;9.07;98.36;99182.08;129798;1268;99166;-74
2023/11/20 08:00:00;;;;;;;14.60;9.70;;;;;;;9.09;98.40;99179.15;129774;1268;98765;-74
2023/11/20 08:03:07;;;;;;;15.80;8.00;;;;;;;9.10;98.54;99179.77;129828;1268;98088;-74
2023/11/20 08:06:13;;;;;;;20.40;10.20;;;;;;;9.11;98.54;99175.55;129752;1268;98044;-75
2023/11/20 08:09:19;;;;;;;18.40;9.70;;;;;;;9.16;98.42;99172.54;129791;1268;98042;-74
2023/11/20 08:12:25;;;;;;;18.30;9.90;;;;;;;9.21;98.54;99170.86;129759;1268;99155;-73
2023/11/20 08:15:31;;;;;;;23.60;11.00;;;;;;;9.23;98.28;99174.67;129800;1268;98058;-74
2023/11/20 08:18:37;;;;;;;18.50;9.80;;;;;;;9.23;98.54;99178.77;129780;1268;97961;-76
2023/11/20 08:21:43;;;;;;;18.20;9.90;;;;;;;9.24;98.48;99174.95;129804;1266;99282;-77
2023/11/20 08:24:48;;;;;;;21.10;10.50;;;;;;;9.26;98.52;99178.88;129758;1265;98679;-76
2023/11/20 08:27:54;;;;;;;21.50;9.80;;;;;;;9.31;98.44;99180.29;129795;1268;98082;-76
2023/11/20 08:30:59;;;;;;;22.70;11.70;;;;;;;9.38;98.31;99182.45;129776;1268;99121;-76
2023/11/20 08:34:05;;;;;;;19.90;11.30;;;;;;;9.44;98.29;99180.58;129811;1268;98011;-74
2023/11/20 08:37:11;;;;;;;20.40;12.10;;;;;;;9.47;98.56;99178.27;129805;1266;98078;-74
2023/11/20 08:40:17;;;;;;;39.50;25.10;;;;;;;9.52;98.42;99178.23;129759;1268;97980;-76
2023/11/20 08:43:24;;;;;;;96.70;52.30;;;;;;;9.59;98.47;99178.52;129767;1265;98854;-75
2023/11/20 08:46:30;;;;;;;102.30;55.80;;;;;;;9.68;98.42;99181.77;129755;1271;99149;-75
2023/11/20 08:49:36;;;;;;;238.70;114.90;;;;;;;9.75;98.29;99184.53;129806;1268;97971;-75
2023/11/20 08:52:42;;;;;;;285.90;140.00;;;;;;;9.78;98.25;99185.45;129776;1264;98860;-75
2023/11/20 08:55:48;;;;;;;120.90;61.60;;;;;;;9.77;98.18;99185.52;129750;1279;97974;-75
2023/11/20 08:58:53;;;;;;;83.20;42.20;;;;;;;9.78;98.21;99186.45;129768;1270;98651;-75
2023/11/20 09:01:59;;;;;;;112.70;62.90;;;;;;;9.79;98.31;99184.02;129801;1268;98045;-76
2023/11/20 09:05:05;;;;;;;120.50;68.60;;;;;;;9.86;98.25;99183.89;129793;1270;99148;-75
2023/11/20 09:08:10;;;;;;;347.40;218.80;;;;;;;9.89;98.04;99189.15;129615;1270;99071;-75
2023/11/20 09:11:16;;;;;;;188.80;101.00;;;;;;;9.94;97.95;99188.05;129593;1268;99154;-76
2023/11/20 09:14:21;;;;;;;338.70;182.60;;;;;;;9.97;97.66;99184.31;129550;1268;98657;-76
2023/11/20 09:17:27;;;;;;;326.90;167.70;;;;;;;10.00;98.01;99186.95;129790;1268;99132;-75
2023/11/20 09:20:33;;;;;;;172.00;102.10;;;;;;;10.04;98.03;99182.81;129861;1268;99265;-75
2023/11/20 09:23:38;;;;;;;65.40;40.30;;;;;;;10.10;97.81;99179.71;129855;1268;98793;-74
2023/11/20 09:26:44;;;;;;;95.80;66.90;;;;;;;10.12;97.43;99176.04;129736;1268;98052;-74
2023/11/20 09:29:50;;;;;;;127.80;90.70;;;;;;;10.14;97.67;99175.15;129908;1268;98063;-75
2023/11/20 09:32:55;;;;;;;32.40;20.90;;;;;;;10.13;97.81;99174.93;129802;1268;97950;-74
2023/11/20 09:36:01;;;;;;;26.70;19.60;;;;;;;10.14;97.66;99169.13;129727;1268;98065;-74
2023/11/20 09:39:07;;;;;;;30.30;23.00;;;;;;;10.16;97.62;99169.14;129768;1268;99131;-76
2023/11/20 09:42:14;;;;;;;23.80;17.80;;;;;;;10.19;97.72;99172.34;129762;1266;97989;-74
2023/11/20 09:45:28;;;;;;;15.80;10.40;;;;;;;10.24;97.44;99171.15;129807;1269;98652;-74
2023/11/20 09:48:34;;;;;;;18.90;11.90;;;;;;;10.26;97.50;99168.10;129835;1277;97967;-74
2023/11/20 09:51:43;;;;;;;23.10;13.40;;;;;;;10.24;97.31;99166.68;129726;1267;99150;-74
2023/11/20 09:54:51;;;;;;;16.10;11.60;;;;;;;10.20;97.47;99163.34;129780;1266;98087;-74
2023/11/20 09:57:56;;;;;;;30.40;22.40;;;;;;;10.18;97.52;99164.34;129808;1274;97958;-74
2023/11/20 10:01:06;;;;;;;22.20;17.10;;;;;;;10.16;97.81;99165.15;129769;1269;98732;-74
2023/11/20 10:04:17;;;;;;;27.80;14.00;;;;;;;10.16;97.67;99158.90;129791;1278;98828;-74
2023/11/20 10:07:27;;;;;;;17.80;13.30;;;;;;;10.14;97.71;99156.63;129772;1269;99005;-74
2023/11/20 10:10:34;;;;;;;13.50;9.80;;;;;;;10.10;97.34;99157.98;129772;1267;98048;-74
2023/11/20 10:13:40;;;;;;;17.50;10.30;;;;;;;10.07;97.52;99154.48;129748;1277;97958;-74
2023/11/20 10:16:46;;;;;;;13.50;8.20;;;;;;;10.11;97.47;99153.29;129772;1266;97967;-74
2023/11/20 10:19:52;;;;;;;13.30;8.30;;;;;;;10.15;97.52;99152.26;129826;1270;98054;-74
2023/11/20 10:23:05;;;;;;;8.60;6.40;;;;;;;10.14;97.32;99149.33;129738;1268;98052;-74
2023/11/20 10:26:11;;;;;;;9.00;6.50;;;;;;;10.14;97.52;99148.52;129760;1268;97980;-74
2023/11/20 10:29:17;;;;;;;9.20;5.40;;;;;;;10.12;97.43;99149.94;129755;1268;99036;-74
2023/11/20 10:32:24;;;;;;;9.80;5.80;;;;;;;10.12;97.76;99146.52;129732;1269;97996;-74
2023/11/20 10:35:31;;;;;;;10.10;5.80;;;;;;;10.19;97.62;99141.63;129672;1269;99121;-74
2023/11/20 10:38:37;;;;;;;9.00;5.90;;;;;;;10.26;97.66;99143.41;129720;1277;99264;-74
2023/11/20 10:41:43;;;;;;;7.90;5.70;;;;;;;10.24;97.26;99139.82;129752;1278;98005;-74
2023/11/20 10:44:49;;;;;;;7.60;5.90;;;;;;;10.28;97.45;99137.30;129703;1264;98057;-74
2023/11/20 10:47:56;;;;;;;14.60;10.90;;;;;;;10.27;97.44;99134.91;129771;1270;97964;-75
2023/11/20 10:51:08;;;;;;;11.10;7.40;;;;;;;10.26;97.46;99137.01;129788;1279;98332;-75
2023/11/20 10:54:16;;;;;;;10.10;6.50;;;;;;;10.27;97.41;99135.02;129828;1268;98017;-75
2023/11/20 10:57:22;;;;;;;9.30;6.30;;;;;;;10.31;97.16;99132.00;129820;1268;98642;-75
2023/11/20 11:00:29;;;;;;;10.10;5.60;;;;;;;10.30;97.03;99132.05;129790;1268;98717;-75
2023/11/20 11:03:36;;;;;;;9.60;6.10;;;;;;;10.26;97.04;99133.65;129760;1279;98018;-75
2023/11/20 11:06:47;;;;;;;8.80;5.50;;;;;;;10.23;97.23;99128.39;129814;1268;99225;-73
2023/11/20 11:09:54;;;;;;;8.20;5.00;;;;;;;10.24;97.59;99127.21;129765;1265;98658;-74
2023/11/20 11:13:01;;;;;;;7.80;5.50;;;;;;;10.28;97.19;99125.41;129887;1264;99042;-76
2023/11/20 11:16:13;;;;;;;10.60;6.30;;;;;;;10.34;97.59;99126.98;129923;1276;98117;-74
2023/11/20 11:19:27;;;;;;;92.50;48.80;;;;;;;10.40;97.25;99123.13;129838;1268;98659;-74
2023/11/20 11:22:36;;;;;;;71.40;32.00;;;;;;;10.44;97.36;99123.13;129820;1279;99208;-74
2023/11/20 11:25:56;;;;;;;323.70;125.00;;;;;;;10.45;97.21;99121.23;129780;1279;97980;-74
2023/11/20 11:29:08;;;;;;;262.70;93.20;;;;;;;10.48;96.86;99120.52;129781;1268;98024;-75
2023/11/20 11:32:36;;;;;;;75.30;28.60;;;;;;;10.55;97.23;99115.75;129760;1268;99155;-77
2023/11/20 11:36:21;;;;;;;57.10;27.90;;;;;;;10.67;97.05;99115.48;129548;1270;98075;-74
2023/11/20 11:39:35;;;;;;;115.80;64.70;;;;;;;10.81;96.93;99111.17;129605;1279;99141;-75
2023/11/20 11:42:49;;;;;;;276.10;160.20;;;;;;;10.90;96.85;99108.77;129769;1269;99048;-76
2023/11/20 11:45:58;;;;;;;191.70;107.10;;;;;;;10.99;97.05;99111.40;129839;1269;97980;-76
2023/11/20 11:49:21;;;;;;;53.70;31.80;;;;;;;11.05;96.75;99112.98;129775;1269;98022;-74
2023/11/20 11:52:34;;;;;;;23.10;13.20;;;;;;;11.07;96.91;99112.50;129896;1279;98771;-77
2023/11/20 11:55:57;;;;;;;22.40;11.10;;;;;;;11.04;95.97;99111.05;129862;1263;99137;-75
2023/11/20 11:59:43;;;;;;;13.70;7.90;;;;;;;10.98;96.27;99114.42;129384;1271;98476;-75
2023/11/20 12:03:01;;;;;;;12.30;6.90;;;;;;;10.89;95.91;99109.89;129899;1264;99049;-74
2023/11/20 12:06:19;;;;;;;18.10;10.00;;;;;;;10.80;96.34;99107.47;129863;1277;99065;-75
2023/11/20 12:09:57;;;;;;;27.60;10.20;;;;;;;10.79;96.17;99100.88;129807;1268;97987;-74
2023/11/20 12:13:15;;;;;;;21.10;11.20;;;;;;;10.82;96.05;99102.52;129780;1268;98980;-76
2023/11/20 12:16:36;;;;;;;13.00;7.90;;;;;;;10.87;96.29;99099.77;129859;1276;98610;-74
2023/11/20 12:19:42;;;;;;;18.80;12.60;;;;;;;10.89;95.80;99102.54;129894;1268;97961;-74
2023/11/20 12:22:50;;;;;;;43.40;29.90;;;;;;;10.88;96.04;99099.66;129804;1275;99039;-75
2023/11/20 12:25:56;;;;;;;23.50;15.00;;;;;;;10.84;95.93;99097.96;129826;1276;99148;-75
2023/11/20 12:29:02;;;;;;;34.70;17.20;;;;;;;10.80;95.64;99100.70;129865;1269;99039;-75
2023/11/20 12:32:09;;;;;;;35.30;23.20;;;;;;;10.79;95.58;99096.41;129831;1278;98078;-76
2023/11/20 12:35:14;;;;;;;21.00;12.80;;;;;;;10.79;95.71;99098.42;129918;1270;101442;-75
2023/11/20 12:38:20;;;;;;;13.30;8.30;;;;;;;10.77;95.75;99100.25;129818;1268;97963;-75
2023/11/20 12:41:28;;;;;;;17.00;11.00;;;;;;;10.69;95.72;99097.24;129864;1268;99208;-74
2023/11/20 12:44:34;;;;;;;19.60;13.80;;;;;;;10.67;95.89;99098.38;130029;1268;98018;-75
2023/11/20 12:47:40;;;;;;;455.80;168.90;;;;;;;10.69;95.80;99092.70;129825;1279;98056;-76
2023/11/20 12:50:49;;;;;;;776.20;409.30;;;;;;;10.69;95.60;99096.91;129873;1268;98053;-74
2023/11/20 12:53:56;;;;;;;496.90;214.20;;;;;;;10.68;95.81;99092.64;129871;1277;97991;-75
2023/11/20 12:57:02;;;;;;;857.90;469.10;;;;;;;10.68;95.34;99089.06;129844;1268;99156;-76
2023/11/20 13:00:10;;;;;;;473.60;230.80;;;;;;;10.66;95.61;99094.20;129858;1268;98174;-74
2023/11/20 13:03:18;;;;;;;65.40;32.40;;;;;;;10.67;95.61;99090.06;129927;1264;99174;-74
2023/11/20 13:06:24;;;;;;;62.00;33.60;;;;;;;10.64;95.73;99094.38;129858;1274;98436;-74
2023/11/20 13:09:31;;;;;;;41.90;26.20;;;;;;;10.64;95.56;99094.84;129901;1264;97989;-73
2023/11/20 13:12:38;;;;;;;84.60;56.40;;;;;;;10.67;95.63;99092.88;129988;1277;98749;-73
2023/11/20 13:15:43;;;;;;;99.30;65.80;;;;;;;10.68;95.37;99094.70;129941;1271;99205;-74
2023/11/20 13:18:51;;;;;;;53.30;34.60;;;;;;;10.70;95.60;99088.80;129874;1271;99189;-74
2023/11/20 13:22:05;;;;;;;34.70;24.10;;;;;;;10.68;95.62;99088.62;129893;1272;97983;-74
2023/11/20 13:25:11;;;;;;;21.20;11.70;;;;;;;10.66;95.76;99084.32;129847;1271;99059;-74
2023/11/20 13:28:18;;;;;;;25.70;18.00;;;;;;;10.65;95.35;99085.11;129871;1272;97988;-74
2023/11/20 13:31:34;;;;;;;27.10;15.80;;;;;;;10.62;95.22;99080.27;129869;1269;99255;-74
2023/11/20 13:34:39;;;;;;;30.10;20.00;;;;;;;10.61;95.27;99082.57;129974;1270;97959;-74
2023/11/20 13:37:46;;;;;;;31.30;18.80;;;;;;;10.54;95.49;99085.99;129874;1279;98083;-74
2023/11/20 13:40:54;;;;;;;44.10;26.90;;;;;;;10.52;95.39;99092.36;129860;1263;97978;-74
2023/11/20 13:43:59;;;;;;;69.60;45.50;;;;;;;10.49;95.53;99096.02;129846;1270;97969;-74
2023/11/20 13:47:07;;;;;;;28.20;16.50;;;;;;;10.49;95.43;99098.42;129846;1264;98025;-75
2023/11/20 13:50:13;;;;;;;21.40;14.10;;;;;;;10.48;95.46;99094.88;129869;1268;101329;-75
2023/11/20 13:53:20;;;;;;;23.60;12.70;;;;;;;10.49;95.67;99090.73;129934;1277;99174;-75
2023/11/20 13:56:26;;;;;;;30.90;13.30;;;;;;;10.47;95.18;99098.93;129889;1263;98071;-76
2023/11/20 13:59:32;;;;;;;19.40;10.30;;;;;;;10.44;95.31;99106.40;130377;1270;98640;-75
2023/11/20 14:02:38;;;;;;;22.10;10.50;;;;;;;10.39;95.36;99107.51;130479;1264;98074;-76
2023/11/20 14:05:45;;;;;;;35.80;14.70;;;;;;;10.37;95.42;99110.28;129758;1268;98730;-75
2023/11/20 14:08:51;;;;;;;27.90;13.50;;;;;;;10.36;95.45;99112.91;129857;1267;97943;-75
2023/11/20 14:11:56;;;;;;;43.40;21.30;;;;;;;10.34;95.48;99112.38;129859;1271;98050;-74
2023/11/20 14:15:02;;;;;;;31.50;16.10;;;;;;;10.32;95.31;99113.24;129688;1270;99244;-74
2023/11/20 14:18:09;;;;;;;37.20;18.00;;;;;;;10.27;95.44;99114.31;129891;1264;99180;-74